Terminal Aerodrome Forecast
Issued by NWS Wilmington, OH

Current Version | Previous Version | Graphics & Text | Print | Product List | Glossary On
Versions: 1 2 3 4 5 6 7 8 9 10 11 12 13 14 15 16 17 18 19 20 21 22 23 24 25 26 27 28 29 30 31
737
FTUS41 KILN 031850 AAA
TAFCVG
TAF AMD
KCVG 031850Z 0319/0424 34008KT P6SM VCSH OVC040
      TEMPO 0319/0320 5SM -SHRA OVC018
     FM040200 26004KT P6SM SCT040 BKN100
     FM041400 21010KT P6SM VCSH OVC040
     FM041700 24012G20KT 5SM -SHRA OVC025
     FM042100 32012G20KT P6SM VCSH OVC025=

USA.gov is the U.S. government's official web portal to all federal, state and local government web resources and services.